Currently 85°F in French Valley, California, USA
85°F
85°F / 49°F
calm
0.00"
Tuesday, November 30, 2021 1:09 PM PST

French Valley, California Weather Summary
Last 36 Hours

Temperature Winds Hourly Humidity Dewpoint
Time Report Norm Report Norm Max Gusts Precip. Rpt. Norm Rpt. Norm Pressure
1,2Tue 01:09 PM  85.2°F  67°F  calm  4 mph  none  0.00"  16%  42%  32°F  43°F  30.06"
Tue 01:00 PM  85.1°F  67°F  calm  4 mph  none  0.00"  16%  42%  32°F  43°F  30.06"
Tue 12:00 PM  82.5°F  66°F  calm  4 mph  none  0.00"  17%  46%  32°F  43°F  30.10"
Tue 11:00 AM  78.9°F  63°F  calm  3 mph  none  0.00"  21%  50%  35°F  44°F  30.14"
Tue 10:00 AM  72.0°F  60°F  calm  3 mph  none  0.00"  31%  56%  39°F  44°F  30.17"
Tue 09:00 AM  63.8°F  56°F  calm  2 mph  none  0.00"  44%  65%  41°F  43°F  30.19"
Tue 08:00 AM  55.6°F  51°F  calm  2 mph  none  0.00"  51%  72%  37°F  42°F  30.18"
Tue 07:00 AM  52.6°F  47°F  calm  1 mph  none  0.00"  53%  76%  35°F  40°F  30.16"
3Tue 06:19 AM  49.1°F  47°F  calm  1 mph  none  ----  61%  76%  36°F  40°F  30.16"
Tue 06:00 AM  50.5°F  48°F  calm  1 mph  none  0.00"  58%  75%  35°F  40°F  30.16"
Tue 05:00 AM  52.6°F  48°F  calm  1 mph  none  0.00"  53%  75%  35°F  40°F  30.15"
Tue 04:00 AM  52.9°F  48°F  calm  1 mph  none  0.00"  53%  75%  35°F  40°F  30.14"
Tue 03:00 AM  53.8°F  49°F  calm  1 mph  none  0.00"  61%  74%  40°F  41°F  30.13"
Tue 02:00 AM  54.8°F  50°F  calm  1 mph  none  0.00"  52%  74%  37°F  41°F  30.14"
Tue 01:00 AM  56.2°F  50°F  calm  1 mph  none  0.00"  53%  74%  39°F  42°F  30.13"
Tue 12:00 AM  56.9°F  51°F  calm  1 mph  none  0.00"  57%  73%  41°F  42°F  30.13"
Mon 11:00 PM  58.3°F  52°F  calm  1 mph  none  0.00"  59%  72%  44°F  43°F  30.14"
Mon 10:00 PM  59.3°F  53°F  calm  1 mph  none  0.00"  58%  72%  44°F  43°F  30.13"
Mon 09:00 PM  59.5°F  54°F  calm  1 mph  none  0.00"  59%  70%  45°F  44°F  30.12"
Mon 08:00 PM  61.9°F  55°F  calm  2 mph  none  0.00"  49%  68%  42°F  44°F  30.11"
Mon 07:00 PM  63.3°F  57°F  calm  2 mph  none  0.00"  59%  67%  48°F  45°F  30.09"
Mon 06:00 PM  67.3°F  59°F  calm  2 mph  none  0.00"  52%  61%  49°F  45°F  30.08"
Mon 05:00 PM  75.0°F  63°F  calm  3 mph  none  0.00"  33%  53%  43°F  45°F  30.07"
Mon 04:00 PM  81.2°F  66°F  calm  4 mph  none  0.00"  24%  46%  40°F  44°F  30.06"
Mon 03:00 PM  84.9°F  68°F  calm  5 mph  none  0.00"  19%  42%  37°F  43°F  30.06"
Mon 02:00 PM  84.7°F  69°F  calm  4 mph  none  0.00"  16%  40%  31°F  43°F  30.07"
Mon 01:00 PM  84.2°F  68°F  calm  4 mph  none  0.00"  18%  41%  34°F  43°F  30.10"
Mon 12:00 PM  81.4°F  66°F  calm  4 mph  none  0.00"  18%  44%  32°F  43°F  30.14"
Mon 11:00 AM  77.9°F  64°F  calm  3 mph  none  0.00"  22%  49%  34°F  44°F  30.19"
Mon 10:00 AM  72.0°F  60°F  calm  3 mph  none  0.00"  27%  56%  35°F  44°F  30.22"
Mon 09:00 AM  65.8°F  56°F  calm  2 mph  none  0.00"  41%  65%  40°F  44°F  30.24"
Mon 08:00 AM  57.5°F  51°F  calm  2 mph  none  0.00"  44%  73%  35°F  42°F  30.24"
Mon 07:00 AM  54.0°F  48°F  calm  1 mph  none  0.00"  45%  76%  32°F  41°F  30.23"
Mon 06:00 AM  53.4°F  48°F  calm  1 mph  none  0.00"  46%  76%  32°F  41°F  30.22"
Mon 05:00 AM  54.1°F  48°F  calm  1 mph  none  0.00"  44%  76%  32°F  41°F  30.20"
Mon 04:00 AM  54.6°F  49°F  calm  1 mph  none  0.00"  43%  76%  31°F  41°F  30.19"
Mon 03:00 AM  55.6°F  50°F  calm  1 mph  none  0.00"  41%  75%  32°F  42°F  30.19"
Mon 02:00 AM  55.6°F  50°F  calm  1 mph  none  0.00"  43%  74%  32°F  42°F  30.21"

  1. Current weather data. No green row appears if the current weather data is also the high or low for the current day.
  2. High temperature for the current day.
  3. Low temperature for the current day.

The French Valley, California weather pages are a service of WeatherCurrents. French Valley is located in southwestern Riverside County, California, north of Temecula, east of Murrieta, and south of Winchester. French Valley is bordered by Lake Skinner.
Copyright ©2021  WeatherCurrents. All rights reserved. - Submit questions and comments - Privacy Policy

This page automatically refreshes every 10 minutes.